rivva.de alexa rank chart, rivva.de alexa rank daily changes

rivva.de alexa rank chart, rivva.de alexa rank daily changes

rivva.de
Actual rank:
186 495

RANK HISTORY

Date Rank Diff
2018/04/21 186 495 -519 632
2018/04/20 706 127 +498 684
2018/04/19 207 443 +14 755
2018/04/18 192 688 -307 743
2018/04/17 500 431 +88 372
2018/04/16 412 059 +204 734
2018/04/15 207 325 -70 155
2018/04/14 277 480 -145 139
2018/04/13 422 619 +176 213
2018/04/12 246 406 +8 045
2018/04/11 238 361 +30 682
2018/04/10 207 679 -41 897
2018/04/09 249 576 -409 867
2018/04/08 659 443 +253 484
2018/04/07 405 959 +233 915
2018/04/06 172 044 -32 006
2018/04/05 204 050 +42 808
2018/04/04 161 242 -19 563
2018/04/03 180 805 +16 263
2018/04/02 164 542 +28 977
2018/04/01 135 565 -62 308
2018/03/31 197 873 -44 466
2018/03/30 242 339 -129 020
2018/03/29 371 359 +149 488
2018/03/28 221 871 +17 069
2018/03/27 204 802 +10 215
2018/03/26 194 587 -489 898
2018/03/25 684 485 +381 339
2018/03/24 303 146 +166 520
2018/03/23 136 626 -22 982
2018/03/22 159 608 -37 563
2018/03/21 197 171 -37 349
2018/03/20 234 520 -7 738
2018/03/19 242 258 +54 354
2018/03/18 187 904 -32 091
2018/03/17 219 995 -86 593
2018/03/16 306 588 +109 046
2018/03/15 197 542 -15 403
2018/03/14 212 945 +1 638
2018/03/13 211 307 -74 673
2018/03/12 285 980 +117 620
2018/03/11 168 360 -129 422
2018/03/10 297 782 -409 106
2018/03/09 706 888 +460 199
2018/03/08 246 689 +2 866
2018/03/07 243 823 +87 141
2018/03/06 156 682 -39 330
2018/03/05 196 012 -155 388
2018/03/04 351 400 +114 115
2018/03/03 237 285 +70 085
2018/03/02 167 200 -46 261
2018/03/01 213 461 -12 002
2018/02/28 225 463 +35 333
2018/02/27 190 130 -54 870
2018/02/26 245 000 -43 759
2018/02/25 288 759 +56 883
2018/02/24 231 876 +30 570
2018/02/23 201 306 -532 400
2018/02/22 733 706 +563 917
2018/02/21 169 789 -117 642
2018/02/20 287 431

WIDGET FOR YOUR SITE

DOMAINS WITH THE NEAREST RANK

Domain Rank
farrvintners.com 186 490
qualityby.ru 186 491
kayseritempo.org 186 492
inthesetimes.com 186 493
ditp.go.th 186 494
rivva.de 186 495
mihomes.com 186 496
videopas.info 186 497
politi.no 186 498
cstb.fr 186 499
niniplus.com 186 500

DOMAINS WITH THE NEAREST RANK BY TLD .de

Domain Rank
laenderdaten.de 186 033
innsalzach24.de 186 198
sanitaetshaus-schumann.de 186 199
kugellager-express.de 186 396
studentenwerk-bonn.de 186 402
rivva.de 186 495
every.de 186 552
gartencenter-shop24.de 186 732
viking.de 186 736
messe-duesseldorf.de 186 780
dolce-gusto.de 186 871